Time;durP1;ratioP1;P1;durP2;ratioP2;P2;SDS_P1;SDS_P2;PMS_P1;PMS_P2;Temp;Humidity;BMP_temperature;BMP_pressure;BME280_temperature;BME280_humidity;BME280_pressure;Samples;Min_cycle;Max_cycle;Signal;HPM_P1;HPM_P2
2021/12/05 00:16:58;;;;;;;15.45;8.23;;;;;;;6.60;68.91;99267.13;694732;28;1244;-85
2021/12/05 00:19:01;;;;;;;12.30;5.60;;;;;;;6.70;68.42;99284.63;690632;28;1235;-85
2021/12/05 00:21:43;;;;;;;12.40;5.40;;;;;;;6.80;68.90;99289.16;686878;28;1191;-85
2021/12/05 00:22:41;;;;;;;11.25;5.00;;;;;;;6.80;68.32;99273.63;685082;28;1113;-85
2021/12/05 00:22:55;;;;;;;9.50;5.10;;;;;;;6.81;68.65;99290.91;683972;28;1190;-85
2021/12/05 00:23:19;;;;;;;8.50;5.30;;;;;;;6.85;68.29;99290.16;682535;28;1140;-85
2021/12/05 00:23:46;;;;;;;7.90;5.13;;;;;;;6.91;68.64;99293.69;691428;28;1962;-85
2021/12/05 00:24:14;;;;;;;9.00;4.85;;;;;;;6.92;68.25;99298.91;690074;28;1401;-85
2021/12/05 00:24:38;;;;;;;7.80;4.00;;;;;;;6.88;67.99;99276.34;685926;28;1207;-85
2021/12/05 00:25:01;;;;;;;8.10;4.38;;;;;;;6.93;68.28;99279.06;687856;28;1458;-85
2021/12/05 00:25:28;;;;;;;8.10;4.38;;;;;;;6.90;68.21;99286.75;687359;28;1359;-85
2021/12/05 00:25:54;;;;;;;7.00;4.40;;;;;;;6.88;68.20;99278.06;684481;28;1045;-85
2021/12/05 00:26:18;;;;;;;8.70;4.45;;;;;;;6.87;67.99;99276.34;686133;28;1046;-85
2021/12/05 00:26:39;;;;;;;10.63;4.60;;;;;;;6.92;68.38;99282.47;687344;28;1211;-85
2021/12/05 00:27:07;;;;;;;12.55;4.90;;;;;;;6.89;68.08;99292.78;685120;28;1324;-85
2021/12/05 00:27:35;;;;;;;10.40;4.85;;;;;;;6.95;68.61;99293.78;686971;28;1225;-85
2021/12/05 00:28:22;;;;;;;8.38;4.85;;;;;;;6.80;68.64;99278.81;687781;28;1201;-85
2021/12/05 00:29:11;;;;;;;6.82;4.00;;;;;;;6.95;67.96;99282.53;685065;28;1035;-85
2021/12/05 00:32:47;;;;;;;11.43;4.30;;;;;;;6.90;68.36;99294.53;690658;28;1065;-85
2021/12/05 00:39:34;;;;;;;8.88;3.20;;;;;;;6.88;67.51;99291.03;685000;28;1376;-85
2021/12/05 00:42:30;;;;;;;5.25;2.90;;;;;;;6.99;67.20;99307.66;687847;28;860;-85
2021/12/05 00:48:08;;;;;;;9.38;3.42;;;;;;;7.09;66.11;99293.16;687033;28;1391;-84
2021/12/05 00:52:54;;;;;;;5.60;3.00;;;;;;;7.11;66.27;99309.63;679641;29;1275;-84
2021/12/05 00:58:39;;;;;;;8.65;3.35;;;;;;;7.13;65.16;99293.25;689732;28;1084;-85
2021/12/05 01:03:40;;;;;;;7.50;3.70;;;;;;;7.18;64.45;99305.44;685110;28;1115;-85
2021/12/05 01:05:14;;;;;;;8.88;3.67;;;;;;;7.29;65.15;99296.13;684004;28;1222;-84
2021/12/05 01:07:30;;;;;;;6.65;3.50;;;;;;;7.26;64.70;99294.34;686648;28;1441;-85
2021/12/05 01:10:29;;;;;;;7.95;3.40;;;;;;;7.23;64.58;99303.78;685956;28;1119;-85
2021/12/05 01:13:35;;;;;;;5.53;3.20;;;;;;;7.11;64.62;99302.72;685073;28;1125;-85
2021/12/05 01:15:10;;;;;;;5.55;2.90;;;;;;;7.05;64.90;99314.72;688260;28;1074;-84
2021/12/05 01:15:36;;;;;;;11.35;3.00;;;;;;;7.06;64.64;99304.34;688251;28;1242;-85
2021/12/05 01:16:01;;;;;;;15.70;3.30;;;;;;;7.12;64.84;99306.19;691063;28;1156;-85
2021/12/05 01:16:23;;;;;;;9.55;3.00;;;;;;;7.12;64.60;99316.56;686565;28;1377;-84
2021/12/05 01:16:47;;;;;;;7.63;2.97;;;;;;;7.03;64.68;99308.59;681866;29;1332;-85
2021/12/05 01:17:08;;;;;;;5.65;2.67;;;;;;;7.10;64.82;99324.31;680408;29;1117;-85
2021/12/05 01:17:39;;;;;;;5.82;2.60;;;;;;;7.09;64.83;99303.53;690136;28;1344;-85
2021/12/05 01:18:22;;;;;;;5.85;3.00;;;;;;;7.16;64.32;99312.28;686495;28;854;-84
2021/12/05 01:18:43;;;;;;;7.05;3.13;;;;;;;7.13;64.59;99319.19;684456;28;1114;-85
2021/12/05 01:19:07;;;;;;;8.05;3.40;;;;;;;7.07;64.77;99321.66;682897;29;1334;-85
2021/12/05 01:19:31;;;;;;;7.82;3.20;;;;;;;7.04;64.63;99308.63;685054;28;1556;-85
2021/12/05 01:19:53;;;;;;;4.28;2.80;;;;;;;7.07;64.91;99319.06;684330;28;988;-84
2021/12/05 01:20:18;;;;;;;4.22;2.80;;;;;;;6.99;64.75;99312.84;685701;28;993;-85
2021/12/05 01:20:46;;;;;;;5.53;2.90;;;;;;;6.98;64.44;99308.53;688235;28;1045;-84
2021/12/05 01:21:12;;;;;;;8.63;3.10;;;;;;;6.99;64.70;99310.25;686845;28;1419;-85
2021/12/05 01:21:40;;;;;;;9.45;3.00;;;;;;;7.07;64.76;99319.06;687325;28;1110;-85
2021/12/05 01:22:18;;;;;;;7.68;3.30;;;;;;;7.02;64.52;99312.94;680235;29;1285;-85
2021/12/05 01:22:45;;;;;;;8.57;3.53;;;;;;;7.02;65.03;99315.53;686485;28;1214;-85
2021/12/05 01:23:18;;;;;;;9.73;3.40;;;;;;;7.03;64.41;99316.38;690991;28;1049;-85
2021/12/05 01:23:52;;;;;;;9.30;2.95;;;;;;;7.05;64.41;99314.72;690861;28;1921;-85
2021/12/05 01:24:28;;;;;;;13.40;3.40;;;;;;;7.23;64.03;99320.22;689960;28;1681;-85
2021/12/05 01:25:25;;;;;;;7.50;2.90;;;;;;;7.23;64.22;99316.75;690998;28;999;-85
2021/12/05 01:26:18;;;;;;;9.50;3.40;;;;;;;7.21;64.28;99331.44;688242;28;1529;-85
2021/12/05 01:27:42;;;;;;;5.28;2.95;;;;;;;7.02;64.08;99312.03;681299;28;1088;-85
2021/12/05 01:28:21;;;;;;;6.05;2.90;;;;;;;6.94;64.29;99327.47;688253;28;1313;-85
2021/12/05 01:29:24;;;;;;;6.70;3.10;;;;;;;6.96;64.24;99325.78;690908;28;1040;-85
2021/12/05 01:29:58;;;;;;;7.70;3.25;;;;;;;6.88;64.17;99312.66;691031;28;1096;-84
2021/12/05 01:30:40;;;;;;;5.75;2.72;;;;;;;6.88;64.23;99328.22;690995;28;993;-85
2021/12/05 01:31:15;;;;;;;5.78;3.10;;;;;;;6.94;64.15;99333.53;688478;28;1019;-84
2021/12/05 01:31:57;;;;;;;7.47;3.33;;;;;;;6.85;64.17;99326.44;687162;28;2000;-85
2021/12/05 01:32:36;;;;;;;9.98;3.10;;;;;;;6.88;64.48;99329.94;683117;28;1110;-85
2021/12/05 01:35:26;;;;;;;5.35;3.00;;;;;;;6.83;64.58;99320.34;680097;29;1543;-84
2021/12/05 01:35:49;;;;;;;6.45;3.13;;;;;;;6.78;64.67;99327.16;681251;28;1372;-85
2021/12/05 01:38:29;;;;;;;5.85;2.90;;;;;;;6.63;64.53;99326.81;685441;28;1378;-85
2021/12/05 01:39:38;;;;;;;12.63;4.00;;;;;;;6.49;64.89;99329.09;687605;28;1045;-85
2021/12/05 01:52:29;;;;;;;10.18;3.38;;;;;;;6.33;64.40;99322.72;682702;28;1712;-85
2021/12/05 01:54:17;;;;;;;6.15;3.25;;;;;;;6.25;64.20;99326.03;687239;28;1001;-85
2021/12/05 01:54:53;;;;;;;9.77;2.97;;;;;;;6.16;64.49;99316.31;682946;28;1285;-85
2021/12/05 01:55:42;;;;;;;6.93;2.92;;;;;;;6.06;64.59;99313.50;686760;28;1188;-84
2021/12/05 01:59:30;;;;;;;8.77;3.03;;;;;;;5.98;65.13;99315.91;690845;28;1095;-85
2021/12/05 02:01:08;;;;;;;7.72;3.42;;;;;;;5.75;65.56;99324.88;687060;28;1030;-84
2021/12/05 02:11:08;;;;;;;9.82;2.88;;;;;;;5.62;66.38;99322.81;683987;28;1086;-86
2021/12/05 02:11:27;;;;;;;9.07;3.50;;;;;;;5.56;66.33;99317.50;683323;28;1053;-85
2021/12/05 02:15:54;;;;;;;11.27;3.33;;;;;;;5.67;65.77;99321.25;690036;28;1665;-84
2021/12/05 02:29:57;;;;;;;9.18;3.10;;;;;;;6.02;65.00;99308.25;684828;28;1249;-85
2021/12/05 02:33:46;;;;;;;11.52;3.10;;;;;;;6.19;64.66;99307.75;688011;28;1273;-85
2021/12/05 02:35:00;;;;;;;7.70;3.40;;;;;;;6.22;64.57;99300.06;687140;28;1220;-85
2021/12/05 02:35:32;;;;;;;5.60;3.20;;;;;;;6.24;64.34;99308.72;692321;28;911;-85
2021/12/05 02:36:25;;;;;;;5.80;2.83;;;;;;;6.29;64.67;99307.13;680640;29;1149;-86
2021/12/05 02:40:33;;;;;;;8.80;3.30;;;;;;;6.39;64.63;99317.69;682794;28;1286;-85
2021/12/05 02:41:33;;;;;;;8.55;3.35;;;;;;;6.38;64.00;99305.56;687486;28;1303;-85
2021/12/05 02:41:56;;;;;;;6.53;2.90;;;;;;;6.41;64.29;99305.63;686120;28;1711;-85
2021/12/05 02:42:48;;;;;;;8.25;2.72;;;;;;;6.44;63.99;99308.28;690554;28;1041;-85
2021/12/05 02:43:11;;;;;;;9.85;3.22;;;;;;;6.41;63.94;99306.50;682998;28;1550;-85
2021/12/05 02:43:35;;;;;;;6.78;2.95;;;;;;;6.43;63.77;99301.34;684582;28;1534;-85
2021/12/05 02:44:01;;;;;;;8.10;3.00;;;;;;;6.44;63.76;99305.69;685735;28;1968;-85
2021/12/05 02:44:24;;;;;;;7.50;2.95;;;;;;;6.45;64.37;99307.47;690906;28;1354;-85
2021/12/05 02:44:46;;;;;;;11.70;3.20;;;;;;;6.47;63.95;99323.03;687054;28;1541;-85
2021/12/05 02:45:09;;;;;;;11.05;3.15;;;;;;;6.43;63.82;99311.72;685232;28;1909;-85
2021/12/05 02:45:32;;;;;;;10.05;3.17;;;;;;;6.37;64.67;99307.28;684702;28;1240;-86
2021/12/05 02:45:58;;;;;;;8.63;3.25;;;;;;;6.45;64.14;99317.81;685285;28;1282;-85
2021/12/05 02:46:34;;;;;;;8.80;3.20;;;;;;;6.44;64.12;99313.47;687992;28;1048;-85
2021/12/05 02:47:06;;;;;;;6.07;2.90;;;;;;;6.47;63.81;99308.34;690884;28;827;-85
2021/12/05 02:47:28;;;;;;;4.13;2.85;;;;;;;6.51;64.03;99312.75;688002;28;1738;-86
2021/12/05 02:47:51;;;;;;;6.94;3.38;;;;;;;6.50;63.85;99317.91;691007;28;982;-86
2021/12/05 02:48:14;;;;;;;9.52;3.20;;;;;;;6.48;64.13;99306.63;689513;28;834;-85
2021/12/05 02:48:37;;;;;;;8.98;3.20;;;;;;;6.46;63.97;99309.22;688563;28;1127;-85
2021/12/05 02:49:03;;;;;;;11.07;3.13;;;;;;;6.47;63.90;99304.88;693151;28;1656;-86
2021/12/05 02:49:25;;;;;;;9.60;3.17;;;;;;;6.44;64.12;99300.50;690244;28;1095;-85
2021/12/05 02:49:50;;;;;;;7.25;3.22;;;;;;;6.51;63.91;99312.75;688142;28;1081;-85
2021/12/05 02:50:13;;;;;;;7.75;3.03;;;;;;;6.49;64.21;99303.19;685365;28;1364;-84
2021/12/05 02:50:35;;;;;;;7.75;2.80;;;;;;;6.52;63.83;99308.44;685375;28;1089;-85
2021/12/05 02:51:00;;;;;;;9.48;2.90;;;;;;;6.58;64.05;99304.25;682838;29;1129;-85
2021/12/05 02:51:25;;;;;;;8.45;3.00;;;;;;;6.52;63.69;99309.31;687961;28;1193;-84
2021/12/05 02:51:54;;;;;;;10.50;3.10;;;;;;;6.51;63.98;99307.56;684246;28;1297;-85
2021/12/05 02:52:23;;;;;;;9.10;3.20;;;;;;;6.66;63.59;99316.50;688101;28;1241;-85
2021/12/05 02:52:44;;;;;;;7.68;3.22;;;;;;;6.62;63.57;99301.75;685410;28;1282;-85
2021/12/05 02:53:19;;;;;;;8.27;3.17;;;;;;;6.56;63.91;99321.50;685376;28;1276;-85
2021/12/05 02:53:48;;;;;;;8.50;3.00;;;;;;;6.53;63.79;99300.72;687264;28;1146;-85
2021/12/05 02:54:18;;;;;;;6.45;2.90;;;;;;;6.58;63.83;99308.59;685443;28;1139;-85
2021/12/05 02:54:47;;;;;;;6.80;3.00;;;;;;;6.62;63.78;99306.94;685340;28;1386;-85
2021/12/05 02:55:22;;;;;;;7.07;2.95;;;;;;;6.66;63.82;99314.81;687622;28;1661;-85
2021/12/05 02:55:45;;;;;;;7.75;2.97;;;;;;;6.60;63.46;99304.31;689072;28;1248;-84
2021/12/05 02:56:07;;;;;;;9.73;3.30;;;;;;;6.62;63.63;99304.34;685277;28;1148;-84
2021/12/05 02:56:32;;;;;;;9.27;3.30;;;;;;;6.55;63.81;99295.53;690150;28;1438;-85
2021/12/05 02:56:53;;;;;;;5.78;3.10;;;;;;;6.65;63.58;99309.56;690452;28;997;-85
2021/12/05 02:57:15;;;;;;;5.35;2.85;;;;;;;6.62;63.85;99296.56;688012;28;1297;-85
2021/12/05 02:58:15;;;;;;;7.88;3.15;;;;;;;6.68;62.96;99307.03;686263;28;1754;-84
2021/12/05 02:59:17;;;;;;;8.70;2.70;;;;;;;6.67;63.43;99302.69;688945;28;843;-84
2021/12/05 03:00:06;;;;;;;4.97;2.90;;;;;;;6.66;63.51;99295.75;690678;28;1176;-85
2021/12/05 03:00:41;;;;;;;9.05;3.17;;;;;;;6.75;63.26;99311.53;685926;28;1105;-85
2021/12/05 03:01:13;;;;;;;9.38;2.83;;;;;;;6.69;63.06;99306.22;682107;28;1110;-85
2021/12/05 03:01:42;;;;;;;7.93;2.90;;;;;;;6.65;63.19;99299.22;683302;28;1307;-85
2021/12/05 03:02:14;;;;;;;7.95;2.90;;;;;;;6.66;63.50;99295.75;682738;29;1206;-86
2021/12/05 03:02:41;;;;;;;6.50;2.75;;;;;;;6.71;63.29;99304.56;685095;28;1120;-85
2021/12/05 03:03:04;;;;;;;6.55;2.92;;;;;;;6.70;63.63;99310.56;690788;28;1255;-85
2021/12/05 03:03:27;;;;;;;6.18;3.00;;;;;;;6.74;63.46;99311.53;687981;28;1146;-85
2021/12/05 03:03:49;;;;;;;5.93;2.97;;;;;;;6.72;63.70;99303.72;689848;28;1902;-85
2021/12/05 03:04:10;;;;;;;7.30;2.55;;;;;;;6.74;63.25;99304.59;685498;28;1403;-85
2021/12/05 03:04:33;;;;;;;6.82;2.70;;;;;;;6.75;63.42;99306.34;690654;28;1280;-85
2021/12/05 03:04:57;;;;;;;7.28;2.80;;;;;;;6.73;63.33;99302.84;688194;28;1209;-85
2021/12/05 03:05:21;;;;;;;6.10;2.70;;;;;;;6.81;63.35;99313.41;682486;28;1839;-84
2021/12/05 03:05:44;;;;;;;6.45;2.53;;;;;;;6.89;63.23;99313.53;685333;28;1268;-85
2021/12/05 03:06:16;;;;;;;7.75;2.67;;;;;;;6.87;63.06;99310.91;685296;28;1284;-86
2021/12/05 03:06:48;;;;;;;5.25;2.58;;;;;;;6.87;63.06;99302.28;685392;28;1524;-85
2021/12/05 03:07:10;;;;;;;5.50;2.55;;;;;;;6.88;63.07;99312.66;685553;28;977;-84
2021/12/05 03:07:37;;;;;;;8.20;2.80;;;;;;;6.84;63.33;99301.38;686976;28;1378;-85
2021/12/05 03:08:01;;;;;;;8.30;2.90;;;;;;;6.82;63.48;99305.63;688525;28;1358;-85
2021/12/05 03:08:24;;;;;;;7.93;2.95;;;;;;;6.81;62.79;99301.28;693440;28;1280;-85
2021/12/05 03:08:48;;;;;;;7.20;2.65;;;;;;;6.87;63.04;99307.44;685447;28;1009;-84
2021/12/05 03:09:14;;;;;;;6.57;2.60;;;;;;;6.88;62.75;99309.19;682608;29;1271;-85
2021/12/05 03:09:36;;;;;;;6.80;2.80;;;;;;;6.81;63.27;99295.25;686808;28;1253;-85
2021/12/05 03:09:57;;;;;;;7.05;3.00;;;;;;;6.87;63.08;99310.91;690848;28;780;-85
2021/12/05 03:10:20;;;;;;;6.20;3.38;;;;;;;6.83;63.31;99304.78;690811;28;1065;-85
2021/12/05 03:10:41;;;;;;;7.82;3.65;;;;;;;6.94;63.10;99322.28;691143;28;1068;-85
2021/12/05 03:11:03;;;;;;;7.45;3.50;;;;;;;6.95;62.77;99313.66;690739;28;1167;-85
2021/12/05 03:11:33;;;;;;;7.63;2.85;;;;;;;6.85;62.84;99304.81;690746;28;796;-84
2021/12/05 03:11:54;;;;;;;7.78;2.72;;;;;;;6.81;63.34;99309.06;684969;28;1934;-84
2021/12/05 03:12:19;;;;;;;8.25;2.60;;;;;;;6.91;62.91;99306.66;687995;28;772;-84
2021/12/05 03:12:40;;;;;;;8.15;2.70;;;;;;;6.91;62.78;99317.03;689312;28;1398;-84
2021/12/05 03:13:02;;;;;;;7.93;2.80;;;;;;;6.89;63.07;99313.53;688722;28;1059;-85
2021/12/05 03:13:23;;;;;;;9.43;3.10;;;;;;;6.88;63.01;99306.59;687989;28;1238;-84
2021/12/05 03:13:44;;;;;;;8.88;3.13;;;;;;;6.88;63.12;99307.47;690347;28;1170;-85
2021/12/05 03:14:05;;;;;;;9.73;3.08;;;;;;;6.91;62.77;99301.47;687983;28;1142;-85
2021/12/05 03:14:26;;;;;;;8.98;2.70;;;;;;;6.94;62.76;99307.59;685120;28;1081;-84
2021/12/05 03:14:49;;;;;;;9.63;2.60;;;;;;;6.91;62.91;99306.66;690714;28;969;-85
2021/12/05 03:15:13;;;;;;;11.13;2.60;;;;;;;6.92;62.79;99308.41;688028;28;1252;-85
2021/12/05 03:15:34;;;;;;;8.25;2.70;;;;;;;6.94;62.84;99323.16;690472;28;1111;-85
2021/12/05 03:15:56;;;;;;;8.40;2.75;;;;;;;6.89;62.88;99297.97;687919;28;1385;-85
2021/12/05 03:16:20;;;;;;;9.63;3.17;;;;;;;6.87;62.52;99310.03;688040;28;954;-84
2021/12/05 03:16:41;;;;;;;10.25;3.35;;;;;;;6.79;62.73;99308.19;686743;28;1152;-85
2021/12/05 03:17:04;;;;;;;12.00;3.90;;;;;;;6.90;63.12;99310.09;687974;28;1106;-85
2021/12/05 03:17:25;;;;;;;9.73;3.28;;;;;;;6.88;63.23;99301.41;687776;28;1285;-85
2021/12/05 03:17:46;;;;;;;8.68;3.00;;;;;;;6.87;62.58;99302.28;684437;28;1260;-85
2021/12/05 03:18:09;;;;;;;6.30;2.80;;;;;;;6.81;62.90;99313.41;690342;28;1763;-84
2021/12/05 03:18:30;;;;;;;8.35;3.13;;;;;;;6.79;63.16;99302.09;687963;28;1048;-84
2021/12/05 03:18:51;;;;;;;6.95;3.30;;;;;;;6.84;62.87;99316.03;682553;28;1172;-85
2021/12/05 03:19:13;;;;;;;6.00;2.95;;;;;;;6.77;63.14;99307.28;682321;28;1267;-85
2021/12/05 03:19:34;;;;;;;4.50;2.70;;;;;;;6.78;63.10;99313.31;684997;28;1064;-85
2021/12/05 03:19:55;;;;;;;4.82;2.78;;;;;;;6.83;63.01;99317.75;685279;28;1300;-84
2021/12/05 03:20:17;;;;;;;6.00;2.90;;;;;;;6.79;62.84;99308.19;685486;28;1180;-84
2021/12/05 03:20:38;;;;;;;5.85;2.90;;;;;;;6.92;63.08;99308.41;687686;28;1288;-84
2021/12/05 03:21:01;;;;;;;8.73;3.13;;;;;;;6.87;62.78;99304.84;688140;28;783;-84
2021/12/05 03:21:22;;;;;;;10.10;3.47;;;;;;;6.84;63.32;99301.38;687996;28;1212;-85
2021/12/05 03:21:47;;;;;;;9.10;3.33;;;;;;;6.97;62.79;99312.84;688866;28;1578;-85
2021/12/05 03:22:08;;;;;;;5.75;3.08;;;;;;;6.94;62.33;99302.41;690668;28;1160;-85
2021/12/05 03:22:28;;;;;;;7.38;3.00;;;;;;;7.02;62.91;99310.34;690289;28;1153;-85
2021/12/05 03:22:50;;;;;;;8.70;2.90;;;;;;;7.00;62.79;99296.44;690209;28;992;-85
2021/12/05 03:23:13;;;;;;;9.10;2.90;;;;;;;7.06;62.26;99314.72;685253;28;1516;-85
2021/12/05 03:23:36;;;;;;;9.18;3.00;;;;;;;7.09;62.43;99296.66;692113;28;1318;-85
2021/12/05 03:23:58;;;;;;;10.40;3.10;;;;;;;7.11;62.37;99314.81;688040;28;1957;-86
2021/12/05 03:24:21;;;;;;;10.75;3.45;;;;;;;7.11;62.20;99313.09;693709;28;779;-85
2021/12/05 03:24:45;;;;;;;10.35;3.35;;;;;;;7.07;62.20;99308.69;686868;28;1369;-85
2021/12/05 03:25:07;;;;;;;9.32;3.20;;;;;;;7.11;62.32;99320.88;682667;29;1273;-84
2021/12/05 03:25:29;;;;;;;9.30;3.15;;;;;;;7.07;62.52;99308.69;690988;28;1854;-84
2021/12/05 03:25:49;;;;;;;9.00;3.10;;;;;;;7.12;62.50;99300.97;688583;28;1046;-85
2021/12/05 03:26:14;;;;;;;8.85;2.90;;;;;;;7.06;62.31;99306.94;682665;29;1418;-85
2021/12/05 03:26:39;;;;;;;10.75;3.13;;;;;;;7.07;62.54;99329.44;686226;28;1100;-84
2021/12/05 03:27:00;;;;;;;12.07;3.22;;;;;;;7.09;62.12;99317.41;682717;29;1435;-85
2021/12/05 03:27:21;;;;;;;14.40;3.60;;;;;;;7.04;62.09;99307.75;685130;28;1216;-85
2021/12/05 03:27:43;;;;;;;11.90;3.60;;;;;;;7.13;61.97;99305.34;684001;28;1077;-84
2021/12/05 03:28:06;;;;;;;12.35;3.80;;;;;;;7.25;62.14;99313.34;687934;28;1146;-85
2021/12/05 03:28:28;;;;;;;9.65;3.20;;;;;;;7.13;62.21;99305.34;682308;28;1823;-85
2021/12/05 03:28:54;;;;;;;8.52;2.80;;;;;;;7.16;61.97;99307.09;687742;28;1091;-85
2021/12/05 03:29:18;;;;;;;7.80;2.80;;;;;;;7.13;62.12;99302.75;687539;28;1214;-85
2021/12/05 03:29:39;;;;;;;8.25;3.03;;;;;;;7.13;62.13;99307.94;695421;28;1173;-85
2021/12/05 03:30:01;;;;;;;9.10;2.90;;;;;;;7.25;62.24;99322.88;685369;28;1362;-85
2021/12/05 03:30:28;;;;;;;8.80;2.78;;;;;;;7.21;62.03;99300.28;682770;28;1247;-85
2021/12/05 03:30:48;;;;;;;8.77;2.80;;;;;;;7.23;61.83;99301.19;685120;28;1131;-84
2021/12/05 03:31:12;;;;;;;8.60;2.88;;;;;;;7.19;62.06;99291.63;688020;28;1065;-85
2021/12/05 03:31:32;;;;;;;8.10;2.83;;;;;;;7.23;61.90;99314.16;689141;28;1302;-84
2021/12/05 03:31:55;;;;;;;8.45;2.80;;;;;;;7.16;62.39;99294.13;687680;28;1491;-85
2021/12/05 03:32:19;;;;;;;7.18;2.70;;;;;;;7.27;61.67;99315.97;690662;28;1480;-85
2021/12/05 03:32:41;;;;;;;5.90;2.97;;;;;;;7.31;61.59;99306.53;685204;28;1154;-85
2021/12/05 03:33:02;;;;;;;4.93;3.20;;;;;;;7.22;61.80;99302.03;682601;28;1296;-85
2021/12/05 03:33:24;;;;;;;6.63;3.38;;;;;;;7.13;61.79;99303.63;685285;28;1078;-85
2021/12/05 03:33:44;;;;;;;6.13;2.92;;;;;;;7.24;62.09;99321.97;687907;28;1292;-84
2021/12/05 03:34:09;;;;;;;7.05;2.85;;;;;;;7.24;61.80;99326.28;687923;28;1092;-84
2021/12/05 03:34:29;;;;;;;7.05;2.80;;;;;;;7.22;62.01;99307.22;684325;28;1724;-85
2021/12/05 03:34:54;;;;;;;7.18;3.08;;;;;;;7.26;61.97;99311.63;690654;28;1218;-84
2021/12/05 03:35:18;;;;;;;9.27;3.30;;;;;;;7.18;61.54;99298.50;690705;28;986;-84
2021/12/05 03:35:39;;;;;;;7.88;3.10;;;;;;;7.25;61.97;99307.31;690688;28;1080;-86
2021/12/05 03:36:00;;;;;;;8.02;3.28;;;;;;;7.23;61.56;99293.41;688768;28;1167;-85
2021/12/05 03:36:24;;;;;;;7.72;2.92;;;;;;;7.25;61.61;99304.72;688632;28;1351;-85
2021/12/05 03:36:48;;;;;;;11.05;2.95;;;;;;;7.21;61.86;99302.88;689565;28;1387;-84
2021/12/05 03:37:10;;;;;;;10.45;2.60;;;;;;;7.37;61.77;99312.69;686052;28;1326;-84
2021/12/05 03:37:42;;;;;;;6.95;2.70;;;;;;;7.37;61.24;99307.50;688946;28;1911;-85
2021/12/05 03:38:04;;;;;;;5.45;2.97;;;;;;;7.37;61.43;99301.44;691468;28;1535;-84
2021/12/05 03:38:25;;;;;;;5.50;3.13;;;;;;;7.25;61.44;99292.59;682778;28;1069;-85
2021/12/05 03:38:47;;;;;;;5.03;3.10;;;;;;;7.19;61.68;99302.84;683557;28;1167;-84
2021/12/05 03:39:09;;;;;;;5.88;2.85;;;;;;;7.18;61.41;99289.88;685237;28;1579;-85
2021/12/05 03:39:31;;;;;;;9.10;2.85;;;;;;;7.21;61.62;99321.06;683891;28;1357;-84
2021/12/05 03:39:51;;;;;;;8.80;3.03;;;;;;;7.18;61.76;99302.84;685178;28;1208;-84
2021/12/05 03:40:13;;;;;;;9.50;3.30;;;;;;;7.24;61.74;99309.00;688094;28;1139;-85
2021/12/05 03:40:35;;;;;;;8.30;3.10;;;;;;;7.30;61.75;99316.03;686234;28;1490;-85
2021/12/05 03:40:58;;;;;;;9.00;2.70;;;;;;;7.26;61.66;99304.72;690778;28;854;-85
2021/12/05 03:41:19;;;;;;;7.70;2.83;;;;;;;7.25;60.95;99302.09;682450;28;1354;-84
2021/12/05 03:41:42;;;;;;;8.80;3.17;;;;;;;7.24;61.81;99302.94;686043;28;1244;-85
2021/12/05 03:42:04;;;;;;;9.32;3.03;;;;;;;7.09;61.43;99291.47;685870;28;1134;-86
2021/12/05 03:42:26;;;;;;;11.85;3.40;;;;;;;7.12;61.71;99307.06;689596;28;1232;-85
2021/12/05 03:42:47;;;;;;;8.82;3.25;;;;;;;7.09;61.67;99299.25;689787;28;1299;-85
2021/12/05 03:43:11;;;;;;;7.32;2.92;;;;;;;7.12;61.46;99299.28;690600;28;1246;-85
2021/12/05 03:43:33;;;;;;;6.53;2.92;;;;;;;7.15;61.58;99295.88;687644;28;1390;-85
2021/12/05 03:43:56;;;;;;;5.88;2.85;;;;;;;7.15;61.22;99308.84;688016;28;1930;-84
2021/12/05 03:44:18;;;;;;;7.85;2.90;;;;;;;7.20;61.50;99316.72;687946;28;1420;-85
2021/12/05 03:44:39;;;;;;;9.50;3.30;;;;;;;7.06;61.69;99300.91;691804;28;1233;-85
2021/12/05 03:45:04;;;;;;;11.10;3.60;;;;;;;7.06;61.60;99306.94;688043;28;756;-84
2021/12/05 03:45:33;;;;;;;9.55;3.40;;;;;;;7.09;61.67;99312.22;689474;28;1948;-85
2021/12/05 03:45:55;;;;;;;9.68;3.28;;;;;;;7.02;62.01;99299.97;685302;28;1003;-85
2021/12/05 03:46:17;;;;;;;9.38;3.38;;;;;;;7.06;62.11;99308.69;679909;29;1391;-84
2021/12/05 03:46:38;;;;;;;9.75;3.30;;;;;;;7.04;61.89;99303.44;684035;28;1195;-85
2021/12/05 03:47:00;;;;;;;9.38;3.13;;;;;;;7.07;61.62;99303.50;689464;28;1248;-85
2021/12/05 03:47:21;;;;;;;7.63;2.90;;;;;;;7.09;61.78;99317.41;687823;28;1124;-85
2021/12/05 03:47:41;;;;;;;9.88;3.00;;;;;;;7.06;62.10;99299.16;686229;28;1183;-85
2021/12/05 03:48:04;;;;;;;10.10;2.95;;;;;;;7.07;61.55;99326.84;685386;28;1266;-84
2021/12/05 03:48:37;;;;;;;7.90;2.80;;;;;;;7.04;61.57;99298.28;684933;28;1212;-84
2021/12/05 03:49:01;;;;;;;7.40;3.13;;;;;;;7.06;61.91;99313.88;682740;29;804;-84
2021/12/05 03:49:25;;;;;;;8.77;3.10;;;;;;;6.98;62.09;99298.16;682121;28;1037;-85
2021/12/05 03:49:47;;;;;;;10.05;3.50;;;;;;;7.00;61.98;99322.38;681623;29;1390;-84
2021/12/05 03:50:11;;;;;;;6.55;3.30;;;;;;;6.94;62.10;99317.09;680683;29;1407;-85
2021/12/05 03:50:33;;;;;;;9.65;3.40;;;;;;;6.93;62.25;99304.97;685182;28;1117;-85
2021/12/05 03:50:57;;;;;;;9.18;2.97;;;;;;;6.94;62.04;99301.53;685059;28;1115;-85
2021/12/05 03:51:23;;;;;;;7.00;2.75;;;;;;;6.98;62.46;99318.91;687921;28;1279;-85
2021/12/05 03:51:48;;;;;;;8.20;3.00;;;;;;;6.94;62.10;99317.09;689846;28;1193;-84
2021/12/05 03:52:13;;;;;;;13.27;3.20;;;;;;;6.84;62.08;99300.47;687911;28;1996;-84
2021/12/05 03:52:34;;;;;;;14.88;3.58;;;;;;;6.81;62.40;99310.81;688978;28;1128;-84
2021/12/05 03:52:55;;;;;;;11.95;3.33;;;;;;;6.88;62.37;99316.97;689203;28;1390;-85
2021/12/05 03:53:17;;;;;;;8.30;3.13;;;;;;;6.77;62.33;99298.63;685265;28;1140;-84
2021/12/05 03:53:39;;;;;;;7.03;3.03;;;;;;;6.78;62.52;99311.63;685981;28;1080;-84
2021/12/05 03:54:02;;;;;;;5.75;2.88;;;;;;;6.76;62.23;99307.25;685234;28;1248;-84
2021/12/05 03:54:24;;;;;;;6.45;3.22;;;;;;;6.75;62.37;99301.16;685303;28;791;-84
2021/12/05 03:54:45;;;;;;;6.00;2.92;;;;;;;6.83;62.87;99316.88;687959;28;1114;-84
2021/12/05 03:55:10;;;;;;;3.97;2.65;;;;;;;6.81;62.38;99310.81;685205;28;1073;-85
2021/12/05 03:55:32;;;;;;;4.72;2.47;;;;;;;6.75;62.92;99311.53;682403;29;1146;-85
2021/12/05 03:55:54;;;;;;;6.80;2.85;;;;;;;6.70;62.23;99297.59;687808;28;1068;-85
2021/12/05 03:56:16;;;;;;;9.90;2.97;;;;;;;6.75;62.74;99308.09;682623;29;1021;-84
2021/12/05 03:56:38;;;;;;;9.80;3.17;;;;;;;6.81;62.44;99308.22;688263;28;1366;-84
2021/12/05 03:57:00;;;;;;;7.80;3.10;;;;;;;6.94;62.26;99317.97;687966;28;796;-84
2021/12/05 03:57:21;;;;;;;7.38;3.15;;;;;;;6.87;62.39;99305.72;685046;28;1215;-85
2021/12/05 03:57:42;;;;;;;10.15;3.42;;;;;;;6.77;62.61;99312.47;689726;28;1389;-85
2021/12/05 03:58:04;;;;;;;13.88;4.05;;;;;;;6.92;62.43;99318.78;687853;28;1304;-84
2021/12/05 03:58:28;;;;;;;13.20;4.03;;;;;;;6.92;62.05;99319.66;684079;28;1226;-84
2021/12/05 03:58:53;;;;;;;8.30;3.00;;;;;;;6.86;62.45;99309.16;685259;28;1001;-85
2021/12/05 03:59:15;;;;;;;4.53;2.60;;;;;;;6.78;62.68;99311.63;686780;28;1283;-84
2021/12/05 03:59:37;;;;;;;8.35;3.10;;;;;;;6.87;62.50;99328.19;684858;28;1169;-83
2021/12/05 03:59:58;;;;;;;8.70;3.35;;;;;;;6.90;62.23;99320.47;685261;28;1275;-84
2021/12/05 04:00:26;;;;;;;8.55;3.30;;;;;;;6.73;62.60;99295.06;684206;28;1482;-84
2021/12/05 04:00:53;;;;;;;6.30;3.33;;;;;;;6.61;63.10;99297.38;679336;29;973;-84
2021/12/05 04:01:14;;;;;;;8.43;3.50;;;;;;;6.64;62.77;99313.88;682611;29;1022;-84
2021/12/05 04:01:37;;;;;;;8.48;3.45;;;;;;;6.55;62.97;99306.81;686559;28;1323;-84
2021/12/05 04:02:01;;;;;;;8.15;3.13;;;;;;;6.49;63.11;99306.66;688035;28;783;-84
2021/12/05 04:02:23;;;;;;;9.50;3.10;;;;;;;6.46;63.37;99295.34;687936;28;851;-84
2021/12/05 04:02:46;;;;;;;6.55;3.10;;;;;;;6.48;62.99;99302.31;686530;28;1314;-84
2021/12/05 04:03:10;;;;;;;6.43;2.70;;;;;;;6.52;63.36;99318.81;690561;28;1291;-84
2021/12/05 04:03:32;;;;;;;5.45;2.70;;;;;;;6.52;62.90;99317.09;688618;28;1448;-84
2021/12/05 04:03:53;;;;;;;7.20;2.65;;;;;;;6.44;63.41;99297.91;693206;28;1959;-84
2021/12/05 04:04:17;;;;;;;7.78;3.03;;;;;;;6.40;63.57;99293.53;690384;28;1484;-83
2021/12/05 04:04:40;;;;;;;7.35;2.90;;;;;;;6.60;63.57;99316.38;690537;28;1214;-84
2021/12/05 04:05:00;;;;;;;6.65;2.92;;;;;;;6.56;63.10;99311.13;687958;28;1267;-84
2021/12/05 04:05:22;;;;;;;7.00;3.10;;;;;;;6.44;63.46;99309.16;687853;28;1131;-84
2021/12/05 04:05:43;;;;;;;7.00;3.30;;;;;;;6.45;63.59;99307.47;684855;28;1517;-84
2021/12/05 04:06:07;;;;;;;4.55;3.20;;;;;;;6.46;63.55;99311.78;682586;28;1386;-84
2021/12/05 04:06:28;;;;;;;5.68;3.25;;;;;;;6.58;63.33;99314.63;682783;28;1313;-85
2021/12/05 04:06:50;;;;;;;9.38;3.63;;;;;;;6.52;63.11;99311.91;687375;28;1103;-84